C-Class W202 Forum

Объявление

Уважаемые пользователи форума, если у Вас проблемы с регистрацией или входом на форум используйте в качестве браузера Opera

Информация о пользователе

Привет, Гость! Войдите или зарегистрируйтесь.


Вы здесь » C-Class W202 Forum » Обсуждение модели


Обсуждение модели

Тем 91 страница 120 из 1294

Тема Ответов Просмотров Последнее сообщение
16 248 2012-04-10 21:21:51  Лукас
6 183 2012-04-08 22:30:18  Викинг
2 114 2012-04-06 16:22:30  lim_on
105 4154 2012-04-06 11:28:39  Северянин.
8 244 2012-04-06 01:47:05  Антон190
29 453 2012-04-05 22:35:37  repsih
10 517 2012-04-05 15:43:50  RalF
47 1752 2012-04-04 01:59:35  balvanin
49 705 2012-04-02 00:34:30  b_risk
44 944 2012-04-01 20:15:11  repsih
101 стук сзади  hell767
1 80 2012-03-31 23:54:24  Лукас
0 61 2012-03-31 22:13:35  Blin61
3 155 2012-03-31 12:55:15  kda741
8 125 2012-03-30 09:28:17  Добрый
2 326 2012-03-29 10:12:24  SaNeK
106 Постоянно горит SRS  Евгений Александрович
9 283 2012-03-28 23:57:15  gurza
11 385 2012-03-28 20:42:12  Almay
34 781 2012-03-26 22:28:46  Almay
9 206 2012-03-26 09:26:55  Fallen Religion
2 126 2012-03-25 14:59:32  franec
30 484 2012-03-25 07:02:16  D_Godunov
25 1086 2012-03-23 11:04:08  Zhelob
0 42 2012-03-22 20:32:21  Dan3108
19 463 2012-03-22 19:22:46  Patrick
40 628 2012-03-21 20:30:12  Medvedev
116 km/h = rpm  Slaffk  [ 1 2 ]
30 373 2012-03-20 23:06:35  коба666
16 221 2012-03-20 12:27:36  a-two
7 309 2012-03-19 12:25:35  SLAYER
7 179 2012-03-19 06:03:24  alex-ssa
10 138 2012-03-19 00:38:10  mod-er

Вы здесь » C-Class W202 Forum » Обсуждение модели